PRIVATE WETTERSTATION BILLIGHEIM-ALLFELD                       ZURCK
Wetterdaten: Montag, 24.03.2014
Datum Zeit Temp. A. Temp. A. min Temp. A. max Feuchte A. Luftdruck Regen Wind Richtung Richtung Sonnenschein ET Solar Taupunkt Windchill Windben Empfang
24.03.2014 00:00 2,5 C 2,5 C 2,6 C 83 % 1009,1 hPa 0,0 l/m 0,0 km/h (0 Bft) N 0 0 min 0,000 mm 0 W/m -0,1 C 2,5 C 0,0 km/h (0 Bft) 100 %
24.03.2014 00:10 2,5 C 2,4 C 2,5 C 83 % 1009,1 hPa 0,0 l/m 0,0 km/h (0 Bft) N 0 0 min 0,000 mm 0 W/m -0,1 C 2,5 C 0,0 km/h (0 Bft) 99 %
24.03.2014 00:20 2,6 C 2,4 C 2,6 C 83 % 1009,1 hPa 0,0 l/m 0,0 km/h (0 Bft) N 0 0 min 0,000 mm 0 W/m 0,0 C 2,6 C 0,0 km/h (0 Bft) 100 %
24.03.2014 00:30 2,6 C 2,6 C 2,6 C 83 % 1009,1 hPa 0,0 l/m 0,0 km/h (0 Bft) NW 315 0 min 0,000 mm 0 W/m 0,0 C 2,6 C 1,6 km/h (1 Bft) 100 %
24.03.2014 00:40 2,6 C 2,6 C 2,6 C 83 % 1009,1 hPa 0,0 l/m 0,0 km/h (0 Bft) NW 315 0 min 0,000 mm 0 W/m 0,0 C 2,6 C 1,6 km/h (1 Bft) 100 %
24.03.2014 00:50 2,6 C 2,5 C 2,6 C 83 % 1009,0 hPa 0,0 l/m 0,0 km/h (0 Bft) NW 315 0 min 0,000 mm 0 W/m 0,0 C 2,6 C 1,6 km/h (1 Bft) 100 %
24.03.2014 01:00 2,6 C 2,6 C 2,6 C 83 % 1009,0 hPa 0,0 l/m 0,0 km/h (0 Bft) NW 315 0 min 0,000 mm 0 W/m 0,0 C 2,6 C 1,6 km/h (1 Bft) 91 %
24.03.2014 01:10 2,6 C 2,6 C 2,6 C 83 % 1009,2 hPa 0,0 l/m 0,0 km/h (0 Bft) N 0 0 min 0,000 mm 0 W/m 0,0 C 2,6 C 0,0 km/h (0 Bft) 100 %
24.03.2014 01:20 2,6 C 2,5 C 2,6 C 83 % 1009,2 hPa 0,0 l/m 0,0 km/h (0 Bft) NW 315 0 min 0,000 mm 0 W/m 0,0 C 2,6 C 1,6 km/h (1 Bft) 100 %
24.03.2014 01:30 2,4 C 2,4 C 2,6 C 82 % 1009,2 hPa 0,0 l/m 0,0 km/h (0 Bft) NW 315 0 min 0,000 mm 0 W/m -0,4 C 2,4 C 3,2 km/h (1 Bft) 100 %
24.03.2014 01:40 2,4 C 2,4 C 2,4 C 82 % 1009,3 hPa 0,0 l/m 0,0 km/h (0 Bft) NW 315 0 min 0,000 mm 0 W/m -0,4 C 2,4 C 3,2 km/h (1 Bft) 100 %
24.03.2014 01:50 2,2 C 2,2 C 2,4 C 83 % 1009,3 hPa 0,0 l/m 0,0 km/h (0 Bft) NW 315 0 min 0,000 mm 0 W/m -0,4 C 2,2 C 1,6 km/h (1 Bft) 100 %
24.03.2014 02:00 2,2 C 2,2 C 2,2 C 83 % 1009,4 hPa 0,0 l/m 0,0 km/h (0 Bft) NW 315 0 min 0,000 mm 0 W/m -0,4 C 2,2 C 1,6 km/h (1 Bft) 100 %
24.03.2014 02:10 2,2 C 2,2 C 2,2 C 83 % 1009,5 hPa 0,0 l/m 0,0 km/h (0 Bft) N 0 0 min 0,000 mm 0 W/m -0,4 C 2,2 C 0,0 km/h (0 Bft) 99 %
24.03.2014 02:20 2,1 C 2,1 C 2,2 C 83 % 1009,5 hPa 0,0 l/m 0,0 km/h (0 Bft) N 0 0 min 0,000 mm 0 W/m -0,5 C 2,1 C 0,0 km/h (0 Bft) 100 %
24.03.2014 02:30 2,1 C 2,1 C 2,1 C 84 % 1009,4 hPa 0,0 l/m 0,0 km/h (0 Bft) N 0 0 min 0,000 mm 0 W/m -0,3 C 2,1 C 0,0 km/h (0 Bft) 89 %
24.03.2014 02:40 1,9 C 1,9 C 2,1 C 84 % 1009,5 hPa 0,0 l/m 0,0 km/h (0 Bft) W-NW 292 0 min 0,000 mm 0 W/m -0,5 C 1,9 C 3,2 km/h (1 Bft) 100 %
24.03.2014 02:50 1,9 C 1,9 C 1,9 C 84 % 1009,5 hPa 0,0 l/m 0,0 km/h (0 Bft) W-NW 292 0 min 0,000 mm 0 W/m -0,5 C 1,9 C 3,2 km/h (1 Bft) 100 %
24.03.2014 03:00 1,9 C 1,8 C 1,9 C 85 % 1009,5 hPa 0,0 l/m 0,0 km/h (0 Bft) W-NW 292 0 min 0,000 mm 0 W/m -0,3 C 1,9 C 1,6 km/h (1 Bft) 100 %
24.03.2014 03:10 1,8 C 1,8 C 1,9 C 85 % 1009,5 hPa 0,0 l/m 0,0 km/h (0 Bft) N 0 0 min 0,000 mm 0 W/m -0,4 C 1,8 C 0,0 km/h (0 Bft) 100 %
24.03.2014 03:20 1,8 C 1,8 C 1,8 C 85 % 1009,8 hPa 0,0 l/m 0,0 km/h (0 Bft) N 0 0 min 0,000 mm 0 W/m -0,4 C 1,8 C 0,0 km/h (0 Bft) 100 %
24.03.2014 03:30 1,8 C 1,8 C 1,8 C 86 % 1009,7 hPa 0,0 l/m 0,0 km/h (0 Bft) N 0 0 min 0,000 mm 0 W/m -0,3 C 1,8 C 0,0 km/h (0 Bft) 100 %
24.03.2014 03:40 1,7 C 1,7 C 1,8 C 86 % 1009,8 hPa 0,0 l/m 0,0 km/h (0 Bft) N 0 0 min 0,000 mm 0 W/m -0,4 C 1,7 C 0,0 km/h (0 Bft) 100 %
24.03.2014 03:50 1,6 C 1,6 C 1,7 C 86 % 1010,0 hPa 0,0 l/m 0,0 km/h (0 Bft) W-NW 292 0 min 0,000 mm 0 W/m -0,5 C 1,6 C 1,6 km/h (1 Bft) 98 %
24.03.2014 04:00 1,7 C 1,6 C 1,7 C 86 % 1010,1 hPa 0,0 l/m 0,0 km/h (0 Bft) W-NW 292 0 min 0,000 mm 0 W/m -0,4 C 1,7 C 3,2 km/h (1 Bft) 99 %
24.03.2014 04:10 1,8 C 1,7 C 1,8 C 86 % 1010,1 hPa 0,0 l/m 0,0 km/h (0 Bft) W-NW 292 0 min 0,000 mm 0 W/m -0,3 C 1,8 C 4,8 km/h (1 Bft) 100 %
24.03.2014 04:20 1,8 C 1,8 C 1,8 C 86 % 1010,1 hPa 0,0 l/m 0,0 km/h (0 Bft) N 0 0 min 0,000 mm 0 W/m -0,3 C 1,8 C 0,0 km/h (0 Bft) 100 %
24.03.2014 04:30 1,8 C 1,8 C 1,8 C 86 % 1010,2 hPa 0,0 l/m 0,0 km/h (0 Bft) W-NW 292 0 min 0,000 mm 0 W/m -0,3 C 1,8 C 1,6 km/h (1 Bft) 100 %
24.03.2014 04:40 1,8 C 1,8 C 1,8 C 86 % 1010,3 hPa 0,0 l/m 0,0 km/h (0 Bft) W-NW 292 0 min 0,000 mm 0 W/m -0,3 C 1,8 C 3,2 km/h (1 Bft) 100 %
24.03.2014 04:50 1,8 C 1,8 C 1,8 C 87 % 1010,4 hPa 0,0 l/m 0,0 km/h (0 Bft) W-NW 292 0 min 0,000 mm 0 W/m -0,1 C 1,8 C 1,6 km/h (1 Bft) 100 %
24.03.2014 05:00 1,8 C 1,7 C 1,8 C 87 % 1010,4 hPa 0,0 l/m 0,0 km/h (0 Bft) W-NW 292 0 min 0,000 mm 0 W/m -0,1 C 1,8 C 3,2 km/h (1 Bft) 100 %
24.03.2014 05:10 1,7 C 1,7 C 1,8 C 87 % 1010,5 hPa 0,0 l/m 0,0 km/h (0 Bft) W-NW 292 0 min 0,000 mm 0 W/m -0,2 C 1,7 C 4,8 km/h (1 Bft) 100 %
24.03.2014 05:20 1,6 C 1,6 C 1,7 C 87 % 1010,5 hPa 0,0 l/m 0,0 km/h (0 Bft) N 0 0 min 0,000 mm 0 W/m -0,3 C 1,6 C 0,0 km/h (0 Bft) 100 %
24.03.2014 05:30 1,6 C 1,6 C 1,6 C 87 % 1010,5 hPa 0,0 l/m 0,0 km/h (0 Bft) N 0 0 min 0,000 mm 0 W/m -0,3 C 1,6 C 0,0 km/h (0 Bft) 100 %
24.03.2014 05:40 1,4 C 1,4 C 1,6 C 87 % 1010,6 hPa 0,0 l/m 0,0 km/h (0 Bft) W-NW 292 0 min 0,000 mm 0 W/m -0,5 C 1,4 C 1,6 km/h (1 Bft) 100 %
24.03.2014 05:50 1,4 C 1,4 C 1,4 C 87 % 1010,7 hPa 0,0 l/m 0,0 km/h (0 Bft) NW 315 0 min 0,000 mm 0 W/m -0,5 C 1,4 C 4,8 km/h (1 Bft) 100 %
24.03.2014 06:00 1,4 C 1,4 C 1,4 C 87 % 1010,8 hPa 0,0 l/m 1,6 km/h (1 Bft) NW 315 0 min 0,000 mm 0 W/m -0,5 C 1,4 C 8,0 km/h (2 Bft) 100 %
24.03.2014 06:10 1,4 C 1,4 C 1,4 C 87 % 1010,9 hPa 0,0 l/m 0,0 km/h (0 Bft) NW 315 0 min 0,000 mm 0 W/m -0,5 C 1,4 C 3,2 km/h (1 Bft) 99 %
24.03.2014 06:20 1,4 C 1,4 C 1,4 C 87 % 1011,0 hPa 0,0 l/m 0,0 km/h (0 Bft) W-NW 292 0 min 0,000 mm 0 W/m -0,5 C 1,4 C 3,2 km/h (1 Bft) 100 %
24.03.2014 06:30 1,4 C 1,4 C 1,4 C 87 % 1011,1 hPa 0,0 l/m 1,6 km/h (1 Bft) NW 315 0 min 0,000 mm 0 W/m -0,5 C 1,4 C 9,7 km/h (2 Bft) 100 %
24.03.2014 06:40 1,4 C 1,4 C 1,4 C 87 % 1011,3 hPa 0,0 l/m 1,6 km/h (1 Bft) W 270 0 min 0,000 mm 0 W/m -0,5 C 1,4 C 4,8 km/h (1 Bft) 100 %
24.03.2014 06:50 1,5 C 1,4 C 1,5 C 87 % 1011,4 hPa 0,0 l/m 0,0 km/h (0 Bft) W-NW 292 0 min 0,000 mm 0 W/m -0,4 C 1,5 C 4,8 km/h (1 Bft) 100 %
24.03.2014 07:00 1,6 C 1,5 C 1,6 C 87 % 1011,4 hPa 0,0 l/m 0,0 km/h (0 Bft) W-NW 292 0 min 0,000 mm 14 W/m -0,3 C 1,6 C 6,4 km/h (2 Bft) 89 %
24.03.2014 07:10 1,7 C 1,6 C 1,7 C 87 % 1011,4 hPa 0,0 l/m 0,0 km/h (0 Bft) NW 315 0 min 0,000 mm 21 W/m -0,2 C 1,7 C 1,6 km/h (1 Bft) 100 %
24.03.2014 07:20 1,7 C 1,7 C 1,7 C 87 % 1011,6 hPa 0,0 l/m 0,0 km/h (0 Bft) N 0 0 min 0,000 mm 26 W/m -0,2 C 1,7 C 0,0 km/h (0 Bft) 100 %
24.03.2014 07:30 1,8 C 1,7 C 1,8 C 87 % 1011,7 hPa 0,0 l/m 0,0 km/h (0 Bft) N 0 0 min 0,000 mm 33 W/m -0,1 C 1,8 C 0,0 km/h (0 Bft) 100 %
24.03.2014 07:40 1,9 C 1,8 C 1,9 C 87 % 1011,7 hPa 0,0 l/m 0,0 km/h (0 Bft) N 0 0 min 0,000 mm 79 W/m -0,0 C 1,9 C 0,0 km/h (0 Bft) 100 %
24.03.2014 07:50 2,3 C 1,9 C 2,3 C 87 % 1011,7 hPa 0,0 l/m 0,0 km/h (0 Bft) N 0 10 min 0,000 mm 172 W/m 0,4 C 2,3 C 0,0 km/h (0 Bft) 100 %
24.03.2014 08:00 3,1 C 2,3 C 3,1 C 86 % 1011,8 hPa 0,0 l/m 0,0 km/h (0 Bft) W-SW 247 10 min 0,025 mm 185 W/m 1,0 C 3,1 C 1,6 km/h (1 Bft) 100 %
24.03.2014 08:10 3,8 C 3,1 C 3,8 C 84 % 1011,9 hPa 0,0 l/m 0,0 km/h (0 Bft) N 0 10 min 0,000 mm 221 W/m 1,4 C 3,8 C 0,0 km/h (0 Bft) 99 %
24.03.2014 08:20 4,0 C 3,8 C 4,0 C 82 % 1011,9 hPa 0,0 l/m 0,0 km/h (0 Bft) W-SW 247 10 min 0,000 mm 260 W/m 1,2 C 4,0 C 1,6 km/h (1 Bft) 100 %
24.03.2014 08:30 4,6 C 4,0 C 4,6 C 82 % 1012,0 hPa 0,0 l/m 0,0 km/h (0 Bft) W-SW 247 10 min 0,000 mm 283 W/m 1,8 C 4,6 C 1,6 km/h (1 Bft) 100 %
24.03.2014 08:40 5,2 C 4,6 C 5,2 C 81 % 1012,1 hPa 0,0 l/m 0,0 km/h (0 Bft) W-SW 247 10 min 0,000 mm 301 W/m 2,2 C 5,2 C 3,2 km/h (1 Bft) 100 %
24.03.2014 08:50 5,6 C 5,2 C 5,6 C 77 % 1012,2 hPa 0,0 l/m 1,6 km/h (1 Bft) SW 225 10 min 0,000 mm 332 W/m 1,9 C 5,6 C 4,8 km/h (1 Bft) 91 %
24.03.2014 09:00 5,7 C 5,5 C 5,7 C 78 % 1012,3 hPa 0,0 l/m 0,0 km/h (0 Bft) S-SW 202 10 min 0,102 mm 360 W/m 2,2 C 5,7 C 4,8 km/h (1 Bft) 100 %
24.03.2014 09:10 5,8 C 5,7 C 5,8 C 76 % 1012,3 hPa 0,0 l/m 1,6 km/h (1 Bft) W 270 10 min 0,000 mm 396 W/m 1,9 C 5,8 C 8,0 km/h (2 Bft) 100 %
24.03.2014 09:20 5,8 C 5,8 C 5,8 C 78 % 1012,3 hPa 0,0 l/m 0,0 km/h (0 Bft) W-SW 247 10 min 0,000 mm 353 W/m 2,3 C 5,8 C 1,6 km/h (1 Bft) 100 %
24.03.2014 09:30 5,8 C 5,7 C 5,8 C 78 % 1012,3 hPa 0,0 l/m 1,6 km/h (1 Bft) SW 225 10 min 0,000 mm 420 W/m 2,3 C 5,8 C 8,0 km/h (2 Bft) 100 %
24.03.2014 09:40 6,2 C 5,8 C 6,2 C 73 % 1012,2 hPa 0,0 l/m 0,0 km/h (0 Bft) N 360 10 min 0,000 mm 582 W/m 1,7 C 6,2 C 1,6 km/h (1 Bft) 100 %
24.03.2014 09:50 6,2 C 6,2 C 6,2 C 73 % 1012,3 hPa 0,0 l/m 0,0 km/h (0 Bft) NW 315 10 min 0,000 mm 295 W/m 1,7 C 6,2 C 3,2 km/h (1 Bft) 100 %
24.03.2014 10:00 6,5 C 6,2 C 6,5 C 71 % 1012,3 hPa 0,0 l/m 0,0 km/h (0 Bft) N-NO 22 10 min 0,127 mm 438 W/m 1,6 C 6,5 C 3,2 km/h (1 Bft) 100 %
24.03.2014 10:10 6,6 C 6,5 C 6,6 C 74 % 1012,5 hPa 0,0 l/m 0,0 km/h (0 Bft) O-NO 67 10 min 0,000 mm 406 W/m 2,3 C 6,6 C 4,8 km/h (1 Bft) 100 %
24.03.2014 10:20 6,6 C 6,6 C 6,6 C 73 % 1012,5 hPa 0,0 l/m 0,0 km/h (0 Bft) N-NW 337 10 min 0,000 mm 279 W/m 2,1 C 6,6 C 6,4 km/h (2 Bft) 100 %
24.03.2014 10:30 6,5 C 6,4 C 6,7 C 71 % 1012,4 hPa 0,0 l/m 0,0 km/h (0 Bft) N 360 10 min 0,000 mm 311 W/m 1,6 C 6,5 C 1,6 km/h (1 Bft) 100 %
24.03.2014 10:40 6,6 C 6,5 C 6,6 C 74 % 1012,3 hPa 0,0 l/m 1,6 km/h (1 Bft) SW 225 10 min 0,000 mm 346 W/m 2,3 C 6,6 C 6,4 km/h (2 Bft) 100 %
24.03.2014 10:50 7,3 C 6,7 C 7,3 C 72 % 1012,4 hPa 0,0 l/m 1,6 km/h (1 Bft) SW 225 10 min 0,000 mm 691 W/m 2,6 C 7,3 C 9,7 km/h (2 Bft) 100 %
24.03.2014 11:00 7,2 C 7,2 C 7,3 C 69 % 1012,3 hPa 0,0 l/m 0,0 km/h (0 Bft) SW 225 10 min 0,152 mm 272 W/m 1,9 C 7,2 C 9,7 km/h (2 Bft) 100 %
24.03.2014 11:10 6,9 C 6,9 C 7,2 C 71 % 1012,3 hPa 0,0 l/m 4,8 km/h (1 Bft) S-SW 202 10 min 0,000 mm 246 W/m 2,0 C 6,9 C 11,3 km/h (2 Bft) 100 %
24.03.2014 11:20 6,6 C 6,4 C 6,9 C 73 % 1012,2 hPa 0,0 l/m 3,2 km/h (1 Bft) W-SW 247 10 min 0,000 mm 691 W/m 2,1 C 6,6 C 9,7 km/h (2 Bft) 100 %
24.03.2014 11:30 6,8 C 6,6 C 6,8 C 71 % 1012,1 hPa 0,0 l/m 4,8 km/h (1 Bft) S-SW 202 10 min 0,000 mm 316 W/m 1,9 C 6,8 C 11,3 km/h (2 Bft) 100 %
24.03.2014 11:40 6,8 C 6,8 C 6,8 C 71 % 1012,1 hPa 0,0 l/m 6,4 km/h (2 Bft) SW 225 10 min 0,000 mm 343 W/m 1,9 C 6,8 C 17,7 km/h (3 Bft) 100 %
24.03.2014 11:50 6,9 C 6,8 C 6,9 C 70 % 1012,1 hPa 0,0 l/m 4,8 km/h (1 Bft) SW 225 10 min 0,000 mm 450 W/m 1,8 C 6,9 C 14,5 km/h (3 Bft) 100 %
24.03.2014 12:00 7,0 C 6,9 C 7,0 C 71 % 1012,1 hPa 0,0 l/m 6,4 km/h (2 Bft) SW 225 10 min 0,127 mm 274 W/m 2,1 C 7,0 C 17,7 km/h (3 Bft) 99 %
24.03.2014 12:10 6,5 C 6,5 C 7,0 C 76 % 1012,5 hPa 0,2 l/m 8,0 km/h (2 Bft) NW 315 0 min 0,000 mm 84 W/m 2,6 C 5,2 C 19,3 km/h (3 Bft) 100 %
24.03.2014 12:20 5,6 C 5,6 C 6,5 C 79 % 1012,6 hPa 0,2 l/m 1,6 km/h (1 Bft) NW 315 0 min 0,000 mm 46 W/m 2,3 C 5,6 C 8,0 km/h (2 Bft) 100 %
24.03.2014 12:30 4,6 C 4,6 C 5,6 C 82 % 1012,6 hPa 0,0 l/m 1,6 km/h (1 Bft) NO 45 0 min 0,000 mm 121 W/m 1,8 C 4,6 C 4,8 km/h (1 Bft) 100 %
24.03.2014 12:40 4,3 C 4,3 C 4,6 C 85 % 1012,6 hPa 0,0 l/m 0,0 km/h (0 Bft) N-NO 22 10 min 0,000 mm 199 W/m 2,0 C 4,3 C 3,2 km/h (1 Bft) 100 %
24.03.2014 12:50 4,3 C 4,3 C 4,3 C 86 % 1012,6 hPa 0,0 l/m 1,6 km/h (1 Bft) NO 45 10 min 0,000 mm 248 W/m 2,2 C 4,3 C 6,4 km/h (2 Bft) 100 %
24.03.2014 13:00 4,6 C 4,4 C 4,7 C 85 % 1012,6 hPa 0,0 l/m 1,6 km/h (1 Bft) N-NW 337 10 min 0,051 mm 334 W/m 2,3 C 4,6 C 8,0 km/h (2 Bft) 100 %
24.03.2014 13:10 5,1 C 4,6 C 5,1 C 85 % 1012,5 hPa 0,0 l/m 1,6 km/h (1 Bft) NO 45 10 min 0,000 mm 540 W/m 2,8 C 5,1 C 9,7 km/h (2 Bft) 100 %
24.03.2014 13:20 5,6 C 5,1 C 5,6 C 85 % 1012,4 hPa 0,0 l/m 1,6 km/h (1 Bft) N-NW 337 10 min 0,000 mm 457 W/m 3,3 C 5,6 C 8,0 km/h (2 Bft) 100 %
24.03.2014 13:30 6,0 C 5,6 C 6,0 C 82 % 1012,3 hPa 0,0 l/m 3,2 km/h (1 Bft) N 360 10 min 0,000 mm 666 W/m 3,2 C 6,0 C 9,7 km/h (2 Bft) 100 %
24.03.2014 13:40 7,0 C 5,9 C 7,0 C 84 % 1012,2 hPa 0,0 l/m 3,2 km/h (1 Bft) N-NW 337 10 min 0,000 mm 833 W/m 4,5 C 7,0 C 11,3 km/h (2 Bft) 100 %
24.03.2014 13:50 7,2 C 7,0 C 7,4 C 75 % 1011,9 hPa 0,0 l/m 1,6 km/h (1 Bft) N-NW 337 10 min 0,000 mm 766 W/m 3,1 C 7,2 C 9,7 km/h (2 Bft) 100 %
24.03.2014 14:00 7,6 C 7,1 C 7,6 C 79 % 1012,0 hPa 0,0 l/m 3,2 km/h (1 Bft) NW 315 10 min 0,229 mm 673 W/m 4,2 C 7,6 C 16,1 km/h (3 Bft) 100 %
24.03.2014 14:10 7,7 C 7,7 C 7,8 C 75 % 1012,0 hPa 0,0 l/m 4,8 km/h (1 Bft) NW 315 10 min 0,000 mm 541 W/m 3,6 C 7,7 C 20,9 km/h (4 Bft) 100 %
24.03.2014 14:20 7,7 C 7,7 C 7,8 C 71 % 1012,0 hPa 0,0 l/m 4,8 km/h (1 Bft) NW 315 10 min 0,000 mm 446 W/m 2,8 C 7,7 C 19,3 km/h (3 Bft) 99 %
24.03.2014 14:30 7,3 C 7,3 C 7,7 C 74 % 1012,0 hPa 0,0 l/m 4,8 km/h (1 Bft) N-NW 337 10 min 0,000 mm 313 W/m 3,0 C 7,3 C 16,1 km/h (3 Bft) 100 %
24.03.2014 14:40 6,8 C 6,8 C 7,4 C 73 % 1012,1 hPa 0,0 l/m 8,0 km/h (2 Bft) NW 315 0 min 0,000 mm 111 W/m 2,3 C 5,5 C 17,7 km/h (3 Bft) 100 %
24.03.2014 14:50 6,2 C 6,2 C 6,8 C 75 % 1012,1 hPa 0,0 l/m 9,7 km/h (2 Bft) NW 315 0 min 0,000 mm 79 W/m 2,1 C 3,6 C 17,7 km/h (3 Bft) 100 %
24.03.2014 15:00 5,7 C 5,7 C 6,2 C 77 % 1012,0 hPa 0,0 l/m 3,2 km/h (1 Bft) NW 315 0 min 0,102 mm 33 W/m 2,0 C 5,7 C 16,1 km/h (3 Bft) 100 %
24.03.2014 15:10 5,2 C 5,2 C 5,7 C 78 % 1011,9 hPa 0,0 l/m 0,0 km/h (0 Bft) NW 315 0 min 0,000 mm 70 W/m 1,7 C 5,2 C 6,4 km/h (2 Bft) 100 %
24.03.2014 15:20 4,9 C 4,9 C 5,2 C 83 % 1011,8 hPa 0,0 l/m 1,6 km/h (1 Bft) S-SO 157 0 min 0,000 mm 134 W/m 2,3 C 4,9 C 6,4 km/h (2 Bft) 99 %
24.03.2014 15:30 4,9 C 4,8 C 4,9 C 80 % 1011,8 hPa 0,0 l/m 1,6 km/h (1 Bft) S-SW 202 10 min 0,000 mm 190 W/m 1,7 C 4,9 C 6,4 km/h (2 Bft) 99 %
24.03.2014 15:40 5,2 C 4,9 C 5,2 C 79 % 1011,6 hPa 0,0 l/m 3,2 km/h (1 Bft) S-SW 202 10 min 0,000 mm 186 W/m 1,9 C 5,2 C 9,7 km/h (2 Bft) 100 %
24.03.2014 15:50 5,6 C 5,3 C 5,6 C 79 % 1011,6 hPa 0,0 l/m 3,2 km/h (1 Bft) SW 225 0 min 0,000 mm 144 W/m 2,3 C 5,6 C 9,7 km/h (2 Bft) 100 %
24.03.2014 16:00 5,7 C 5,6 C 5,8 C 76 % 1011,6 hPa 0,0 l/m 3,2 km/h (1 Bft) S 180 0 min 0,051 mm 113 W/m 1,8 C 5,7 C 8,0 km/h (2 Bft) 100 %
24.03.2014 16:10 5,8 C 5,7 C 5,8 C 76 % 1011,6 hPa 0,0 l/m 3,2 km/h (1 Bft) S 180 0 min 0,000 mm 120 W/m 1,9 C 5,8 C 8,0 km/h (2 Bft) 100 %
24.03.2014 16:20 6,1 C 5,8 C 6,1 C 73 % 1011,4 hPa 0,0 l/m 0,0 km/h (0 Bft) S 180 0 min 0,000 mm 116 W/m 1,6 C 6,1 C 4,8 km/h (1 Bft) 100 %
24.03.2014 16:30 6,3 C 6,1 C 6,3 C 70 % 1011,5 hPa 0,0 l/m 1,6 km/h (1 Bft) W-NW 292 0 min 0,000 mm 58 W/m 1,2 C 6,3 C 6,4 km/h (2 Bft) 100 %
24.03.2014 16:40 6,5 C 6,3 C 6,5 C 71 % 1011,6 hPa 0,0 l/m 1,6 km/h (1 Bft) NW 315 0 min 0,000 mm 42 W/m 1,6 C 6,5 C 9,7 km/h (2 Bft) 100 %
24.03.2014 16:50 6,6 C 6,5 C 6,6 C 71 % 1011,6 hPa 0,0 l/m 3,2 km/h (1 Bft) NW 315 0 min 0,000 mm 37 W/m 1,7 C 6,6 C 9,7 km/h (2 Bft) 100 %
24.03.2014 17:00 6,5 C 6,5 C 6,6 C 71 % 1011,6 hPa 0,0 l/m 3,2 km/h (1 Bft) NW 315 0 min 0,025 mm 40 W/m 1,6 C 6,5 C 9,7 km/h (2 Bft) 100 %
24.03.2014 17:10 6,2 C 6,2 C 6,4 C 71 % 1011,7 hPa 0,0 l/m 4,8 km/h (1 Bft) W-NW 292 0 min 0,000 mm 40 W/m 1,3 C 6,2 C 11,3 km/h (2 Bft) 100 %
24.03.2014 17:20 6,1 C 6,0 C 6,2 C 73 % 1011,8 hPa 0,0 l/m 4,8 km/h (1 Bft) NW 315 0 min 0,000 mm 33 W/m 1,6 C 6,1 C 14,5 km/h (3 Bft) 100 %
24.03.2014 17:30 5,8 C 5,8 C 6,0 C 74 % 1011,7 hPa 0,0 l/m 4,8 km/h (1 Bft) NW 315 0 min 0,000 mm 44 W/m 1,5 C 5,8 C 11,3 km/h (2 Bft) 100 %
24.03.2014 17:40 5,7 C 5,7 C 5,8 C 76 % 1011,7 hPa 0,0 l/m 1,6 km/h (1 Bft) NW 315 0 min 0,000 mm 44 W/m 1,8 C 5,7 C 6,4 km/h (2 Bft) 100 %
24.03.2014 17:50 5,6 C 5,6 C 5,6 C 76 % 1011,8 hPa 0,0 l/m 1,6 km/h (1 Bft) NW 315 0 min 0,000 mm 39 W/m 1,7 C 5,6 C 8,0 km/h (2 Bft) 99 %
24.03.2014 18:00 5,4 C 5,4 C 5,6 C 75 % 1011,8 hPa 0,0 l/m 1,6 km/h (1 Bft) W-NW 292 0 min 0,025 mm 25 W/m 1,3 C 5,4 C 8,0 km/h (2 Bft) 100 %
24.03.2014 18:10 5,2 C 5,2 C 5,4 C 75 % 1011,9 hPa 0,0 l/m 1,6 km/h (1 Bft) W-NW 292 0 min 0,000 mm 12 W/m 1,1 C 5,2 C 8,0 km/h (2 Bft) 100 %
24.03.2014 18:20 5,1 C 5,1 C 5,2 C 76 % 1012,0 hPa 0,0 l/m 0,0 km/h (0 Bft) W-NW 292 0 min 0,000 mm 7 W/m 1,2 C 5,1 C 1,6 km/h (1 Bft) 100 %
24.03.2014 18:30 4,9 C 4,9 C 5,1 C 77 % 1012,1 hPa 0,0 l/m 0,0 km/h (0 Bft) N 0 0 min 0,000 mm 0 W/m 1,2 C 4,9 C 0,0 km/h (0 Bft) 100 %
24.03.2014 18:40 4,7 C 4,7 C 4,9 C 77 % 1012,0 hPa 0,0 l/m 0,0 km/h (0 Bft) N 0 0 min 0,000 mm 0 W/m 1,0 C 4,7 C 0,0 km/h (0 Bft) 100 %
24.03.2014 18:50 4,6 C 4,6 C 4,7 C 80 % 1012,0 hPa 0,0 l/m 0,0 km/h (0 Bft) W-NW 292 0 min 0,000 mm 0 W/m 1,5 C 4,6 C 1,6 km/h (1 Bft) 100 %
24.03.2014 19:00 4,3 C 4,3 C 4,6 C 80 % 1012,2 hPa 0,0 l/m 0,0 km/h (0 Bft) W-NW 292 0 min 0,000 mm 0 W/m 1,2 C 4,3 C 3,2 km/h (1 Bft) 99 %
24.03.2014 19:10 4,1 C 4,1 C 4,3 C 81 % 1012,3 hPa 0,0 l/m 0,0 km/h (0 Bft) SW 225 0 min 0,000 mm 0 W/m 1,1 C 4,1 C 3,2 km/h (1 Bft) 100 %
24.03.2014 19:20 3,9 C 3,9 C 4,1 C 82 % 1012,3 hPa 0,0 l/m 0,0 km/h (0 Bft) SW 225 0 min 0,000 mm 0 W/m 1,1 C 3,9 C 3,2 km/h (1 Bft) 100 %
24.03.2014 19:30 3,7 C 3,7 C 4,1 C 83 % 1012,5 hPa 0,0 l/m 0,9 km/h (0 Bft) SW 215 0 min 0,000 mm 0 W/m 1,1 C 3,7 C 4,8 km/h (1 Bft) 99 %
24.03.2014 19:40 3,6 C 3,6 C 3,7 C 83 % 1012,4 hPa 0,0 l/m 0,7 km/h (0 Bft) S-SO 168 0 min 0,000 mm 0 W/m 1,0 C 3,6 C 4,8 km/h (1 Bft) 100 %
24.03.2014 19:50 3,6 C 3,6 C 3,7 C 84 % 1012,6 hPa 0,0 l/m 0,3 km/h (0 Bft) S 191 0 min 0,000 mm 0 W/m 1,2 C 3,6 C 3,2 km/h (1 Bft) 100 %
24.03.2014 20:00 3,5 C 3,5 C 3,6 C 84 % 1012,7 hPa 0,0 l/m 0,2 km/h (0 Bft) S 190 0 min 0,000 mm 0 W/m 1,1 C 3,5 C 3,2 km/h (1 Bft) 100 %
24.03.2014 20:10 3,6 C 3,5 C 3,6 C 84 % 1012,9 hPa 0,0 l/m 0,3 km/h (0 Bft) S-SW 210 0 min 0,000 mm 0 W/m 1,2 C 3,6 C 3,2 km/h (1 Bft) 100 %
24.03.2014 20:20 3,4 C 3,4 C 3,6 C 84 % 1012,9 hPa 0,0 l/m 0,4 km/h (0 Bft) S-SW 209 0 min 0,000 mm 0 W/m 1,0 C 3,4 C 4,8 km/h (1 Bft) 91 %
24.03.2014 20:30 3,3 C 3,3 C 3,4 C 85 % 1012,8 hPa 0,0 l/m 0,8 km/h (0 Bft) S-SW 208 0 min 0,000 mm 0 W/m 1,0 C 3,3 C 8,0 km/h (2 Bft) 100 %
24.03.2014 20:40 3,3 C 3,3 C 3,3 C 85 % 1012,9 hPa 0,0 l/m 0,3 km/h (0 Bft) S-SW 205 0 min 0,000 mm 0 W/m 1,0 C 3,3 C 4,8 km/h (1 Bft) 100 %
24.03.2014 20:50 3,2 C 3,2 C 3,3 C 85 % 1012,9 hPa 0,0 l/m 0,0 km/h (0 Bft) S-SW 205 0 min 0,000 mm 0 W/m 0,9 C 3,2 C 1,6 km/h (1 Bft) 100 %
24.03.2014 21:00 3,1 C 3,1 C 3,2 C 85 % 1012,9 hPa 0,0 l/m 0,0 km/h (0 Bft) S-SW 205 0 min 0,000 mm 0 W/m 0,8 C 3,1 C 1,6 km/h (1 Bft) 100 %
24.03.2014 21:10 2,9 C 2,9 C 3,1 C 85 % 1012,9 hPa 0,0 l/m 0,0 km/h (0 Bft) N 0 0 min 0,000 mm 0 W/m 0,6 C 2,9 C 0,0 km/h (0 Bft) 100 %
24.03.2014 21:20 2,8 C 2,7 C 2,9 C 85 % 1012,9 hPa 0,0 l/m 0,0 km/h (0 Bft) N 0 0 min 0,000 mm 0 W/m 0,5 C 2,8 C 0,0 km/h (0 Bft) 100 %
24.03.2014 21:30 2,6 C 2,6 C 2,7 C 86 % 1012,9 hPa 0,0 l/m 0,0 km/h (0 Bft) N 0 0 min 0,000 mm 0 W/m 0,5 C 2,6 C 0,0 km/h (0 Bft) 100 %
24.03.2014 21:40 2,4 C 2,4 C 2,6 C 86 % 1013,0 hPa 0,0 l/m 0,0 km/h (0 Bft) N 0 0 min 0,000 mm 0 W/m 0,3 C 2,4 C 0,0 km/h (0 Bft) 100 %
24.03.2014 21:50 2,1 C 2,1 C 2,4 C 86 % 1013,0 hPa 0,0 l/m 0,0 km/h (0 Bft) N 0 0 min 0,000 mm 0 W/m 0,0 C 2,1 C 0,0 km/h (0 Bft) 100 %
24.03.2014 22:00 1,8 C 1,8 C 2,1 C 86 % 1012,9 hPa 0,0 l/m 0,0 km/h (0 Bft) S-SW 202 0 min 0,000 mm 0 W/m -0,3 C 1,8 C 3,2 km/h (1 Bft) 100 %
24.03.2014 22:10 1,6 C 1,6 C 1,8 C 87 % 1012,9 hPa 0,0 l/m 0,0 km/h (0 Bft) N 0 0 min 0,000 mm 0 W/m -0,3 C 1,6 C 0,0 km/h (0 Bft) 100 %
24.03.2014 22:20 1,6 C 1,6 C 1,7 C 87 % 1012,9 hPa 0,0 l/m 0,0 km/h (0 Bft) S-SW 202 0 min 0,000 mm 0 W/m -0,3 C 1,6 C 1,6 km/h (1 Bft) 100 %
24.03.2014 22:30 1,4 C 1,4 C 1,6 C 87 % 1012,9 hPa 0,0 l/m 0,0 km/h (0 Bft) N 0 0 min 0,000 mm 0 W/m -0,5 C 1,4 C 0,0 km/h (0 Bft) 100 %
24.03.2014 22:40 1,3 C 1,3 C 1,4 C 87 % 1013,0 hPa 0,0 l/m 0,0 km/h (0 Bft) N 0 0 min 0,000 mm 0 W/m -0,6 C 1,3 C 0,0 km/h (0 Bft) 100 %
24.03.2014 22:50 1,2 C 1,1 C 1,3 C 87 % 1012,9 hPa 0,0 l/m 0,0 km/h (0 Bft) N 0 0 min 0,000 mm 0 W/m -0,7 C 1,2 C 0,0 km/h (0 Bft) 100 %
24.03.2014 23:00 1,4 C 1,2 C 1,4 C 87 % 1012,9 hPa 0,0 l/m 0,0 km/h (0 Bft) S-SW 202 0 min 0,000 mm 0 W/m -0,5 C 1,4 C 1,6 km/h (1 Bft) 100 %
24.03.2014 23:10 1,4 C 1,4 C 1,4 C 87 % 1012,9 hPa 0,0 l/m 0,0 km/h (0 Bft) N 0 0 min 0,000 mm 0 W/m -0,5 C 1,4 C 0,0 km/h (0 Bft) 100 %
24.03.2014 23:20 1,1 C 1,1 C 1,4 C 87 % 1013,0 hPa 0,0 l/m 0,0 km/h (0 Bft) S-SW 202 0 min 0,000 mm 0 W/m -0,8 C 1,1 C 1,6 km/h (1 Bft) 100 %
24.03.2014 23:30 0,8 C 0,8 C 1,1 C 88 % 1013,0 hPa 0,0 l/m 1,6 km/h (1 Bft) S-SW 202 0 min 0,000 mm 0 W/m -1,0 C 0,8 C 4,8 km/h (1 Bft) 100 %
24.03.2014 23:40 1,1 C 0,8 C 1,1 C 87 % 1012,9 hPa 0,0 l/m 0,0 km/h (0 Bft) S-SW 202 0 min 0,000 mm 0 W/m -0,8 C 1,1 C 1,6 km/h (1 Bft) 100 %
24.03.2014 23:50 1,0 C 1,0 C 1,1 C 87 % 1012,9 hPa 0,0 l/m 1,6 km/h (1 Bft) S-SW 202 0 min 0,000 mm 0 W/m -0,9 C 1,0 C 3,2 km/h (1 Bft) 100 %
_ Min-Zeit 23:30 23:30 23:30 11:00 00:50 - 00:00 - - - - - 23:30 23:30 00:00 02:30
Minimum _ 0,8 C 0,8 C 1,1 C 69 % 1009,0 hPa - 0,0 km/h (0 Bft) - - - - - -1,0 C 0,8 C 0,0 km/h (0 Bft) 89 %
_ Max-Zeit 14:10 14:10 14:10 23:30 21:40 12:10 14:50 - - 07:50 14:00 13:40 13:40 14:10 14:10 00:00
Maximum _ 7,8 C 7,7 C 7,8 C 88 % 1013,0 hPa 0,2 l/m 9,7 km/h
NW (2 Bft)
- - 10 min 0,229 mm 833 W/m 4,5 C 7,7 C 20,9 km/h
NW (4 Bft)
100 %
Durchschnitt _ 3,9 C 3,8 C 4,0 C 81 % 1011,6 hPa #0,4 l/m 1,1 km/h (1 Bft) NW - #6:40 h #1,016 mm 252 W/m 0,9 C 3,8 C 5,0 km/h (1 Bft) 99 %
PRIVATE WETTERSTATION BILLIGHEIM-ALLFELD - www.neckar-odenwald-wetter.de - Holger Sonntag